Time;durP1;ratioP1;P1;durP2;ratioP2;P2;SDS_P1;SDS_P2;PMS_P1;PMS_P2;Temp;Humidity;BMP_temperature;BMP_pressure;BME280_temperature;BME280_humidity;BME280_pressure;Samples;Min_cycle;Max_cycle;Signal;HPM_P1;HPM_P2
2022/04/09 00:02:08;;;;;;;5.47;3.00;;;;;;;9.87;100.00;90125.34;4972076;28;20561;-66
2022/04/09 00:04:33;;;;;;;4.95;3.05;;;;;;;9.86;100.00;90132.53;4972284;28;20565;-66
2022/04/09 00:06:59;;;;;;;5.57;2.65;;;;;;;9.88;100.00;90119.69;4972240;28;20357;-66
2022/04/09 00:09:25;;;;;;;6.40;2.67;;;;;;;10.31;99.15;90115.97;4972140;28;20130;-65
2022/04/09 00:11:51;;;;;;;5.43;2.22;;;;;;;10.62;94.87;90117.41;4971913;28;20030;-66
2022/04/09 00:14:17;;;;;;;4.45;1.75;;;;;;;10.73;92.42;90108.69;4974317;28;20035;-65
2022/04/09 00:16:43;;;;;;;5.30;1.90;;;;;;;10.80;91.06;90105.47;4975904;28;20106;-66
2022/04/09 00:19:09;;;;;;;5.25;2.35;;;;;;;10.93;89.54;90109.72;4975903;28;20030;-65
2022/04/09 00:21:35;;;;;;;6.60;2.33;;;;;;;10.96;88.94;90111.72;4975793;28;20061;-66
2022/04/09 00:24:00;;;;;;;7.13;2.30;;;;;;;10.81;90.45;90120.34;4975941;28;20046;-66
2022/04/09 00:26:26;;;;;;;4.53;2.38;;;;;;;10.58;92.77;90116.50;4975800;28;20134;-66
2022/04/09 00:28:51;;;;;;;3.72;2.53;;;;;;;10.40;94.08;90121.97;4975813;28;20039;-66
2022/04/09 00:31:17;;;;;;;5.22;3.00;;;;;;;10.38;92.47;90118.84;4975818;28;20026;-65
2022/04/09 00:33:42;;;;;;;4.50;3.10;;;;;;;10.09;94.69;90118.91;4975487;28;20038;-66
2022/04/09 00:36:08;;;;;;;3.67;2.70;;;;;;;9.95;95.95;90127.16;4975396;28;20130;-66
2022/04/09 00:38:33;;;;;;;4.45;2.75;;;;;;;9.83;97.55;90122.56;4975539;28;20109;-66
2022/04/09 00:40:58;;;;;;;5.63;2.85;;;;;;;9.66;100.00;90117.34;4974249;28;20413;-66
2022/04/09 00:43:24;;;;;;;4.10;2.25;;;;;;;9.77;100.00;90125.72;4975347;28;20031;-66
2022/04/09 00:45:50;;;;;;;4.57;3.03;;;;;;;9.57;100.00;90122.72;4975337;28;20054;-65
2022/04/09 00:48:20;;;;;;;6.40;2.53;;;;;;;9.44;100.00;90126.38;4975267;28;20030;-66
2022/04/09 00:50:47;;;;;;;4.75;2.80;;;;;;;9.34;100.00;90125.97;4975559;28;20038;-65
2022/04/09 00:53:15;;;;;;;6.18;2.92;;;;;;;9.23;100.00;90121.03;4975255;28;20060;-65
2022/04/09 00:56:41;;;;;;;5.07;3.08;;;;;;;9.16;100.00;90123.41;4975586;28;20424;-66
2022/04/09 00:58:38;;;;;;;3.45;2.60;;;;;;;9.06;100.00;90110.50;4974603;28;20045;-65
2022/04/09 01:01:04;;;;;;;12.77;2.95;;;;;;;8.92;100.00;90092.13;4975191;28;20035;-66
2022/04/09 01:03:33;;;;;;;6.75;3.30;;;;;;;8.84;100.00;90113.41;4975096;28;20102;-66
2022/04/09 01:05:59;;;;;;;8.52;3.70;;;;;;;8.80;100.00;90105.28;4975052;28;20134;-66
2022/04/09 01:08:24;;;;;;;5.20;2.90;;;;;;;8.73;100.00;90086.44;4975097;28;20412;-66
2022/04/09 01:10:50;;;;;;;7.78;2.70;;;;;;;8.76;100.00;90101.69;4974980;28;20037;-66
2022/04/09 01:13:16;;;;;;;4.32;2.53;;;;;;;8.97;100.00;90104.44;4973713;28;20102;-66
2022/04/09 01:15:42;;;;;;;4.25;2.53;;;;;;;9.20;100.00;90108.41;4974842;28;20394;-66
2022/04/09 01:18:08;;;;;;;3.63;2.92;;;;;;;9.17;100.00;90100.31;4974936;28;20038;-66
2022/04/09 01:20:34;;;;;;;4.55;2.38;;;;;;;9.14;100.00;90104.34;4973497;28;20117;-65
2022/04/09 01:22:59;;;;;;;4.57;2.90;;;;;;;9.14;100.00;90107.00;4974768;28;20154;-65
2022/04/09 01:25:25;;;;;;;5.70;3.63;;;;;;;9.18;100.00;90099.97;4973738;28;20042;-65
2022/04/09 01:27:51;;;;;;;6.70;3.10;;;;;;;9.16;100.00;90096.09;4974688;28;20037;-65
2022/04/09 01:30:17;;;;;;;4.38;3.35;;;;;;;9.18;100.00;90092.03;4974541;28;20023;-66
2022/04/09 01:32:43;;;;;;;6.72;3.33;;;;;;;9.24;100.00;90095.25;4974506;28;20027;-66
2022/04/09 01:35:09;;;;;;;8.57;3.47;;;;;;;9.30;100.00;90092.09;4974431;28;20053;-66
2022/04/09 01:37:35;;;;;;;5.30;3.10;;;;;;;9.40;100.00;90090.97;4974817;28;20031;-66
2022/04/09 01:40:00;;;;;;;4.70;2.80;;;;;;;9.64;100.00;90090.34;4974501;28;20489;-66
2022/04/09 01:42:28;;;;;;;5.85;2.08;;;;;;;9.82;100.00;90094.44;4974326;28;20070;-66
2022/04/09 01:44:54;;;;;;;4.18;2.20;;;;;;;9.77;100.00;90088.53;4974422;28;20055;-66
2022/04/09 01:47:20;;;;;;;3.92;2.03;;;;;;;9.81;100.00;90087.56;4974409;28;20041;-66
2022/04/09 01:49:46;;;;;;;5.68;2.10;;;;;;;9.88;100.00;90090.47;4974293;28;20058;-66
2022/04/09 01:52:11;;;;;;;5.55;2.42;;;;;;;9.86;100.00;90087.38;4974352;28;20473;-66
2022/04/09 01:54:36;;;;;;;4.53;2.13;;;;;;;9.98;99.72;90085.88;4974115;28;20027;-66
2022/04/09 01:57:02;;;;;;;5.82;1.90;;;;;;;9.94;100.00;90079.66;4974158;28;20042;-66
2022/04/09 01:59:28;;;;;;;3.45;2.20;;;;;;;9.95;99.66;90084.66;4974117;28;20054;-66
2022/04/09 02:01:53;;;;;;;3.53;2.08;;;;;;;9.96;99.20;90085.44;4973943;28;20035;-66
2022/04/09 02:04:18;;;;;;;4.88;2.00;;;;;;;9.96;98.85;90086.22;5131506;23;20091;-65
2022/04/09 02:06:45;;;;;;;4.38;2.20;;;;;;;10.10;97.19;90084.06;5012902;28;20514;-64
2022/04/09 02:09:13;;;;;;;3.83;2.17;;;;;;;10.13;95.52;90078.09;5013035;28;20073;-64
2022/04/09 02:11:40;;;;;;;4.95;2.40;;;;;;;10.23;93.61;90079.59;5012723;28;20037;-65
2022/04/09 02:14:11;;;;;;;5.32;2.47;;;;;;;10.38;91.09;90084.28;5012696;28;20045;-65
2022/04/09 02:16:38;;;;;;;3.38;1.90;;;;;;;10.36;90.61;90088.38;5012724;28;20545;-65
2022/04/09 02:19:04;;;;;;;5.38;2.00;;;;;;;10.19;90.46;90089.28;5012704;28;20045;-65
2022/04/09 02:21:30;;;;;;;4.45;2.40;;;;;;;10.10;91.72;90088.59;5012666;28;20115;-65
2022/04/09 02:23:56;;;;;;;5.65;2.55;;;;;;;10.00;92.07;90087.13;5012414;28;20030;-65
2022/04/09 02:26:22;;;;;;;4.63;2.05;;;;;;;9.91;92.53;90089.81;5012512;28;20045;-65
2022/04/09 02:28:49;;;;;;;4.70;2.40;;;;;;;9.78;93.72;90074.94;5012422;28;20048;-65
2022/04/09 02:31:18;;;;;;;3.42;2.15;;;;;;;9.81;94.32;90087.56;5012575;28;20026;-65
2022/04/09 02:33:47;;;;;;;3.50;2.40;;;;;;;9.85;93.33;90080.50;5012224;28;20044;-64
2022/04/09 02:36:13;;;;;;;2.63;2.05;;;;;;;9.89;93.09;90086.72;5012124;28;20030;-64
2022/04/09 02:38:39;;;;;;;4.18;1.98;;;;;;;9.87;92.84;90077.53;5012268;28;20041;-64
2022/04/09 02:41:06;;;;;;;5.57;2.13;;;;;;;9.78;93.48;90071.47;5012429;28;20454;-64
2022/04/09 02:43:32;;;;;;;4.85;2.28;;;;;;;9.66;94.89;90066.91;5012161;28;20060;-65
2022/04/09 02:45:57;;;;;;;4.88;2.30;;;;;;;9.54;97.09;90070.25;5012144;28;20033;-64
2022/04/09 02:48:23;;;;;;;2.92;2.47;;;;;;;9.34;99.16;90065.72;5012128;28;20558;-64
2022/04/09 02:50:49;;;;;;;3.67;2.30;;;;;;;9.10;100.00;90061.00;5012085;28;20041;-64
2022/04/09 02:53:14;;;;;;;9.80;3.90;;;;;;;8.83;100.00;90051.59;5012075;28;20400;-64
2022/04/09 02:55:40;;;;;;;5.10;2.83;;;;;;;8.68;100.00;90047.63;5011907;28;20040;-64
2022/04/09 02:58:06;;;;;;;4.28;2.35;;;;;;;8.64;100.00;90037.94;5011907;28;20394;-64
2022/04/09 03:00:31;;;;;;;3.25;2.60;;;;;;;8.64;100.00;90036.06;5011797;28;20030;-64
2022/04/09 03:02:57;;;;;;;8.02;2.88;;;;;;;8.68;100.00;90021.13;5011830;28;20025;-64
2022/04/09 03:05:22;;;;;;;5.60;2.47;;;;;;;8.61;100.00;90018.16;5011624;28;20129;-64
2022/04/09 03:07:47;;;;;;;7.53;2.60;;;;;;;8.68;100.00;90023.75;5011795;28;20470;-63
2022/04/09 03:10:13;;;;;;;6.40;2.20;;;;;;;8.78;100.00;90012.00;5010577;28;20030;-64
2022/04/09 03:12:43;;;;;;;4.60;2.55;;;;;;;8.85;100.00;90012.31;5011721;28;20037;-64
2022/04/09 03:15:09;;;;;;;5.07;2.50;;;;;;;8.88;100.00;90021.47;5011640;28;20037;-64
2022/04/09 03:17:34;;;;;;;11.50;3.60;;;;;;;8.88;100.00;90034.75;5011572;28;20026;-65
2022/04/09 03:20:00;;;;;;;4.50;2.67;;;;;;;8.88;100.00;90026.78;5011495;28;20026;-65
2022/04/09 03:22:27;;;;;;;7.53;3.13;;;;;;;8.65;100.00;90024.38;5011574;28;20052;-64
2022/04/09 03:24:56;;;;;;;4.55;2.85;;;;;;;8.50;100.00;90032.84;5011432;28;20030;-65
2022/04/09 03:27:22;;;;;;;6.13;3.90;;;;;;;8.36;100.00;90032.28;5011501;28;20044;-65
2022/04/09 03:29:47;;;;;;;8.80;3.28;;;;;;;8.27;100.00;90034.16;5011456;28;20030;-65
2022/04/09 03:32:13;;;;;;;5.13;2.92;;;;;;;8.22;100.00;90031.69;5011429;28;20059;-65
2022/04/09 03:34:38;;;;;;;14.48;4.35;;;;;;;8.15;100.00;90036.66;5009934;28;20573;-65
2022/04/09 03:37:04;;;;;;;28.52;7.32;;;;;;;8.04;100.00;90029.03;5011406;28;20029;-65
2022/04/09 03:39:30;;;;;;;12.70;3.85;;;;;;;7.93;100.00;90041.09;5011342;28;20029;-64
2022/04/09 03:41:55;;;;;;;47.40;6.45;;;;;;;7.79;100.00;90043.91;5011249;28;20112;-65
2022/04/09 03:44:21;;;;;;;7.32;2.83;;;;;;;7.80;100.00;90034.09;5011473;28;20483;-65
2022/04/09 03:46:46;;;;;;;9.18;2.70;;;;;;;7.98;100.00;90038.25;5011288;28;20500;-65
2022/04/09 03:49:12;;;;;;;6.35;2.50;;;;;;;8.22;100.00;90035.09;5015792;28;20411;-65
2022/04/09 03:51:37;;;;;;;7.07;2.90;;;;;;;8.36;100.00;90032.28;5017758;28;20070;-65
2022/04/09 03:54:03;;;;;;;5.60;2.78;;;;;;;8.37;100.00;90033.84;5017638;28;20110;-65
2022/04/09 03:56:28;;;;;;;8.52;2.58;;;;;;;8.37;100.00;90028.56;5017748;28;20667;-64
2022/04/09 03:58:54;;;;;;;5.90;3.45;;;;;;;8.23;100.00;90031.38;5017704;28;20029;-64
2022/04/09 04:01:24;;;;;;;8.23;4.32;;;;;;;8.20;100.00;90031.19;5017577;28;20491;-64
2022/04/09 04:03:50;;;;;;;16.30;5.50;;;;;;;8.15;100.00;90028.72;5017366;28;20395;-65
2022/04/09 04:06:15;;;;;;;26.10;14.63;;;;;;;8.22;100.00;90026.38;5017704;28;20044;-65
2022/04/09 04:08:40;;;;;;;8.45;5.45;;;;;;;8.20;100.00;90025.91;5017418;28;20388;-65
2022/04/09 04:11:06;;;;;;;6.18;3.70;;;;;;;8.19;100.00;90022.47;5020522;28;20033;-65
2022/04/09 04:13:33;;;;;;;6.78;3.35;;;;;;;8.20;100.00;90017.94;5020248;28;20022;-65
2022/04/09 04:15:59;;;;;;;10.10;4.10;;;;;;;8.31;100.00;90027.91;5018715;28;20029;-65
2022/04/09 04:18:25;;;;;;;6.55;3.00;;;;;;;8.30;100.00;90022.91;5017557;28;20030;-65
2022/04/09 04:20:50;;;;;;;7.25;2.80;;;;;;;8.30;100.00;90022.91;5017492;28;20021;-65
2022/04/09 04:23:16;;;;;;;5.32;2.53;;;;;;;8.32;100.00;90012.78;5017452;28;20139;-65
2022/04/09 04:25:41;;;;;;;9.30;3.13;;;;;;;8.35;100.00;90015.59;5017376;28;20033;-65
2022/04/09 04:28:07;;;;;;;10.40;2.97;;;;;;;8.34;100.00;90014.03;5017596;28;20056;-65
2022/04/09 04:30:32;;;;;;;10.60;4.05;;;;;;;8.44;100.00;90006.84;5017169;28;20113;-65
2022/04/09 04:32:57;;;;;;;5.38;3.35;;;;;;;8.51;100.00;90007.13;5017380;28;20029;-64
2022/04/09 04:35:24;;;;;;;5.32;2.10;;;;;;;8.66;100.00;90003.94;5017354;28;20025;-64
2022/04/09 04:37:49;;;;;;;6.50;2.60;;;;;;;8.67;100.00;89992.25;5017199;28;20088;-65
2022/04/09 04:40:15;;;;;;;4.28;2.60;;;;;;;8.70;100.00;89997.72;5017186;28;20025;-64
2022/04/09 04:42:41;;;;;;;4.50;2.50;;;;;;;9.17;100.00;89991.53;5017256;28;20034;-65
2022/04/09 04:45:07;;;;;;;3.17;2.60;;;;;;;9.49;100.00;89995.34;5017233;28;20026;-65
2022/04/09 04:47:42;;;;;;;8.90;3.10;;;;;;;10.50;96.97;89999.25;5017204;28;20030;-65
2022/04/09 04:50:08;;;;;;;7.25;3.05;;;;;;;11.86;85.93;89993.50;5017185;28;20026;-65
2022/04/09 04:52:33;;;;;;;4.72;2.65;;;;;;;13.84;74.42;89988.03;5017205;28;20030;-65
2022/04/09 04:54:58;;;;;;;7.38;2.95;;;;;;;15.48;65.07;89989.06;5015509;28;20087;-65
2022/04/09 04:57:24;;;;;;;10.50;2.90;;;;;;;15.40;63.08;89991.97;5017095;28;20112;-65
2022/04/09 04:59:49;;;;;;;7.38;3.30;;;;;;;15.53;63.46;89986.06;5015754;28;20101;-65
2022/04/09 05:02:14;;;;;;;9.40;4.20;;;;;;;16.35;60.47;89981.78;5013794;28;20033;-65
2022/04/09 05:04:40;;;;;;;8.77;4.50;;;;;;;16.09;60.31;89992.56;5013734;28;20534;-65
2022/04/09 05:07:05;;;;;;;9.30;5.13;;;;;;;15.49;62.72;89990.59;5014223;28;20038;-65
2022/04/09 05:09:32;;;;;;;9.80;3.85;;;;;;;17.08;57.18;89984.88;5013927;28;20515;-65
2022/04/09 05:11:57;;;;;;;7.60;3.30;;;;;;;18.11;54.06;89987.53;5013878;28;20090;-65
2022/04/09 05:14:23;;;;;;;10.07;3.30;;;;;;;18.52;52.66;89988.09;5013510;28;20491;-65
2022/04/09 05:16:48;;;;;;;4.63;2.50;;;;;;;17.60;53.18;89991.81;5013814;28;20092;-65
2022/04/09 05:19:14;;;;;;;7.90;2.78;;;;;;;17.08;56.19;89990.25;5013776;28;20165;-65
2022/04/09 05:21:39;;;;;;;4.10;2.70;;;;;;;18.92;51.30;89989.00;5013563;28;20079;-66
2022/04/09 05:24:05;;;;;;;12.43;3.42;;;;;;;20.10;47.90;89989.84;5013553;28;20036;-66
2022/04/09 05:26:31;;;;;;;15.20;3.67;;;;;;;22.00;44.42;89991.16;5013547;28;20506;-67
2022/04/09 05:28:57;;;;;;;5.68;2.47;;;;;;;21.16;44.49;89981.34;5013573;28;20041;-67
2022/04/09 05:31:27;;;;;;;10.52;3.17;;;;;;;21.48;44.52;89978.44;5013424;28;20029;-66
2022/04/09 05:33:56;;;;;;;5.80;2.88;;;;;;;21.59;43.40;89994.56;5013334;28;20036;-67
2022/04/09 05:36:21;;;;;;;15.10;6.68;;;;;;;19.43;46.89;89994.09;5013336;28;20137;-66
2022/04/09 05:38:47;;;;;;;10.63;2.80;;;;;;;21.29;45.23;89989.00;5013674;28;20116;-66
2022/04/09 05:41:13;;;;;;;8.57;2.67;;;;;;;22.14;41.96;89991.06;5013210;28;20078;-66
2022/04/09 05:43:39;;;;;;;8.30;2.50;;;;;;;21.82;43.11;89989.38;5013117;28;20069;-67
2022/04/09 05:46:05;;;;;;;17.25;3.50;;;;;;;23.24;40.80;89983.63;5013232;28;20081;-66
2022/04/09 05:48:30;;;;;;;7.53;2.72;;;;;;;25.05;37.85;89990.72;5013134;28;20030;-66
2022/04/09 05:50:56;;;;;;;10.90;3.25;;;;;;;23.59;39.93;89995.94;5013160;28;20018;-66
2022/04/09 05:53:21;;;;;;;6.85;2.13;;;;;;;22.93;40.26;89991.00;5013048;28;20491;-67
2022/04/09 05:55:47;;;;;;;7.28;2.60;;;;;;;23.61;39.58;89996.28;5012396;28;20030;-67
2022/04/09 05:58:12;;;;;;;13.82;2.97;;;;;;;23.60;39.30;90002.91;5012960;28;20061;-66
2022/04/09 06:00:38;;;;;;;5.70;2.60;;;;;;;22.32;40.96;90010.63;5012619;28;20033;-65
2022/04/09 06:03:03;;;;;;;37.40;4.80;;;;;;;22.25;40.92;89989.03;5011544;28;20026;-65
2022/04/09 06:05:29;;;;;;;10.38;2.58;;;;;;;20.81;43.63;90014.72;5012605;28;20057;-64
2022/04/09 06:07:55;;;;;;;3.03;2.08;;;;;;;20.25;44.09;90018.34;5010307;28;20095;-66
2022/04/09 06:10:22;;;;;;;9.60;2.30;;;;;;;21.40;43.08;90014.03;5008011;28;20121;-67
2022/04/09 06:12:47;;;;;;;7.93;2.58;;;;;;;21.94;41.48;90014.44;5000881;28;20440;-66
2022/04/09 06:15:13;;;;;;;9.00;2.53;;;;;;;21.67;42.27;90009.59;5002631;28;20170;-66
2022/04/09 06:17:39;;;;;;;8.00;3.22;;;;;;;22.95;40.39;90018.47;4999998;28;20125;-66
2022/04/09 06:20:06;;;;;;;5.72;2.67;;;;;;;23.38;38.83;90010.56;5012402;28;20029;-66
2022/04/09 06:22:32;;;;;;;5.90;2.50;;;;;;;23.48;38.75;90003.44;5012518;28;20068;-67
2022/04/09 06:24:59;;;;;;;8.52;3.40;;;;;;;23.69;38.60;89996.97;4996777;28;20034;-67
2022/04/09 06:27:24;;;;;;;16.90;3.50;;;;;;;22.96;39.34;90007.22;4992983;28;20084;-67
2022/04/09 06:29:50;;;;;;;5.93;2.63;;;;;;;21.85;41.36;90006.00;4988391;28;20038;-68
2022/04/09 06:32:15;;;;;;;4.18;2.53;;;;;;;21.95;40.87;90007.84;4993210;28;20030;-68
2022/04/09 06:34:42;;;;;;;4.13;2.45;;;;;;;22.69;39.81;90011.78;4992306;28;20110;-67
2022/04/09 06:37:08;;;;;;;13.25;3.05;;;;;;;24.51;37.56;90007.28;4992429;28;20567;-68
2022/04/09 06:39:34;;;;;;;17.23;3.33;;;;;;;24.86;37.89;90010.50;4992485;28;20137;-68
2022/04/09 06:41:59;;;;;;;20.25;3.88;;;;;;;25.96;35.31;90006.25;4993197;28;20034;-66
2022/04/09 06:44:25;;;;;;;3.90;2.25;;;;;;;27.88;33.06;90010.53;5000933;28;20427;-70
2022/04/09 06:46:51;;;;;;;8.02;2.50;;;;;;;27.64;32.61;90002.66;5000950;28;20033;-67
2022/04/09 06:49:16;;;;;;;4.78;2.17;;;;;;;27.60;32.28;90012.88;5002204;28;20507;-68
2022/04/09 06:51:42;;;;;;;11.85;4.43;;;;;;;26.41;33.63;90010.28;5000501;28;20365;-67
2022/04/09 06:54:09;;;;;;;12.57;2.50;;;;;;;25.03;35.42;90009.41;4995780;28;20031;-68
2022/04/09 06:56:36;;;;;;;11.73;2.70;;;;;;;22.75;39.09;90018.31;5011662;28;20343;-67
2022/04/09 06:59:05;;;;;;;7.35;2.42;;;;;;;22.94;39.39;90015.00;5005154;28;20022;-70
2022/04/09 07:01:31;;;;;;;7.13;2.47;;;;;;;23.27;38.58;90009.94;5008666;28;20100;-69
2022/04/09 07:03:57;;;;;;;16.42;7.28;;;;;;;23.78;37.56;90000.69;5000004;28;20542;-67
2022/04/09 07:06:23;;;;;;;13.35;6.25;;;;;;;24.97;36.54;89992.78;5000681;28;20026;-69
2022/04/09 07:08:48;;;;;;;7.80;3.80;;;;;;;24.75;36.48;90003.31;4996546;28;20574;-68
2022/04/09 07:11:14;;;;;;;13.23;6.65;;;;;;;25.05;36.42;89999.66;5001975;28;20593;-68
2022/04/09 07:13:40;;;;;;;12.77;5.97;;;;;;;26.69;34.39;90004.09;5000195;28;20472;-67
2022/04/09 07:16:05;;;;;;;10.90;5.03;;;;;;;27.58;33.25;90000.84;5000344;28;20053;-67
2022/04/09 07:18:32;;;;;;;13.93;6.00;;;;;;;30.74;29.25;90010.19;5010452;28;20029;-67
2022/04/09 07:20:57;;;;;;;9.27;4.85;;;;;;;29.41;30.15;90003.50;5011032;28;20448;-63
2022/04/09 07:23:23;;;;;;;59.13;7.97;;;;;;;29.26;30.63;90002.47;4993036;28;20030;-72
2022/04/09 07:25:49;;;;;;;5.10;1.88;;;;;;;29.64;29.50;90012.47;5008647;28;20034;-69
2022/04/09 07:28:14;;;;;;;11.65;2.60;;;;;;;30.82;29.65;90000.44;5011071;28;20029;-71
2022/04/09 07:30:41;;;;;;;7.78;3.00;;;;;;;32.38;28.17;90006.53;5010095;28;20034;-70
2022/04/09 07:33:07;;;;;;;4.60;2.20;;;;;;;30.15;29.69;89998.44;5010754;28;20029;-68
2022/04/09 07:35:33;;;;;;;21.10;3.65;;;;;;;28.40;31.50;90001.88;5011133;28;20574;-69
2022/04/09 07:38:00;;;;;;;80.05;6.72;;;;;;;27.79;31.76;90013.16;5010954;28;20040;-70
2022/04/09 07:40:27;;;;;;;10.30;2.55;;;;;;;27.42;32.30;90004.44;5010785;28;20468;-70
2022/04/09 07:42:53;;;;;;;3.38;2.08;;;;;;;27.47;32.73;90000.44;4993528;28;20045;-69
2022/04/09 07:45:19;;;;;;;5.55;1.95;;;;;;;29.95;29.24;89996.03;4991192;28;21000;-69
2022/04/09 07:47:45;;;;;;;2.08;1.80;;;;;;;32.67;26.88;90005.91;4991316;28;20416;-68
2022/04/09 07:50:12;;;;;;;8.18;2.50;;;;;;;32.42;27.33;90005.13;4991350;28;20514;-69
2022/04/09 07:52:44;;;;;;;27.65;3.35;;;;;;;29.14;30.99;90000.56;4990995;28;20026;-69
2022/04/09 07:55:12;;;;;;;5.25;1.98;;;;;;;29.15;30.42;89994.63;4991187;28;20030;-69
2022/04/09 07:57:38;;;;;;;6.25;1.95;;;;;;;28.82;30.62;89975.03;5000660;28;20124;-70
2022/04/09 08:00:04;;;;;;;13.40;2.85;;;;;;;28.68;31.05;89994.69;5009784;28;20057;-69
2022/04/09 08:02:30;;;;;;;19.83;2.90;;;;;;;30.26;29.33;89976.81;5002061;28;20069;-69
2022/04/09 08:04:55;;;;;;;14.45;2.50;;;;;;;29.85;29.84;89975.28;4998572;28;20074;-68
2022/04/09 08:07:21;;;;;;;7.50;2.35;;;;;;;29.45;30.17;89992.41;5010730;28;20029;-71
2022/04/09 08:09:46;;;;;;;7.00;1.98;;;;;;;28.48;31.98;89994.19;5001216;28;20030;-72
2022/04/09 08:12:12;;;;;;;4.82;1.77;;;;;;;28.55;30.96;89994.72;5000835;28;20474;-72
2022/04/09 08:14:39;;;;;;;10.35;2.22;;;;;;;28.81;31.02;89989.94;4998640;28;20022;-70
2022/04/09 08:17:05;;;;;;;11.00;2.58;;;;;;;28.45;30.90;89984.16;4999090;28;20034;-70
2022/04/09 08:19:30;;;;;;;8.60;1.92;;;;;;;29.35;30.89;89999.81;5003556;28;20026;-69
2022/04/09 09:48:35;;;;;;;15.10;2.90;;;;;;;22.46;38.65;89935.75;5056239;27;1331038;-69
2022/04/09 09:51:02;;;;;;;85.90;9.48;;;;;;;22.63;38.45;89942.91;5068514;28;20129;-67
2022/04/09 09:53:36;;;;;;;4.95;2.10;;;;;;;22.53;38.61;89936.44;5064470;28;20029;-64
2022/04/09 09:56:04;;;;;;;24.23;3.15;;;;;;;21.98;38.91;89942.06;5067933;28;20056;-67
2022/04/09 09:58:31;;;;;;;9.60;5.60;;;;;;;22.18;38.01;89942.25;5068212;28;20032;-66
2022/04/09 10:00:58;;;;;;;17.88;2.42;;;;;;;22.28;38.58;89939.44;5068061;28;20112;-67
2022/04/09 10:03:27;;;;;;;7.00;2.10;;;;;;;22.78;38.60;89938.84;5067440;28;20033;-67
2022/04/09 10:05:53;;;;;;;2.95;1.63;;;;;;;23.08;37.72;89940.03;5068022;28;20054;-66
2022/04/09 10:08:20;;;;;;;27.08;3.35;;;;;;;23.18;36.56;89929.03;5067840;28;20103;-66
2022/04/09 10:10:50;;;;;;;7.60;2.00;;;;;;;23.06;37.75;89936.97;5067938;28;20036;-65
2022/04/09 10:13:20;;;;;;;10.95;2.67;;;;;;;23.44;35.55;89926.72;5067948;28;20036;-67
2022/04/09 10:15:50;;;;;;;14.05;2.35;;;;;;;23.63;34.78;89928.00;5067917;28;20067;-66
2022/04/09 10:18:21;;;;;;;15.05;3.60;;;;;;;24.58;33.31;89936.44;5067359;28;20044;-66
2022/04/09 10:20:54;;;;;;;93.95;8.02;;;;;;;25.19;32.79;89922.38;5067766;28;20119;-65
2022/04/09 10:23:20;;;;;;;17.58;5.13;;;;;;;25.35;32.49;89925.13;5067751;28;20090;-67
2022/04/09 10:25:46;;;;;;;21.05;9.55;;;;;;;24.66;33.49;89932.41;5067429;28;20460;-67
2022/04/09 10:28:13;;;;;;;14.73;5.38;;;;;;;23.65;35.35;89939.97;5067371;28;20021;-67
2022/04/09 10:30:40;;;;;;;30.98;5.28;;;;;;;22.42;36.15;89927.69;5067805;28;20508;-67
2022/04/09 10:33:30;;;;;;;14.35;5.15;;;;;;;22.62;35.44;89927.81;5067221;28;20036;-67
2022/04/09 10:36:01;;;;;;;9.15;4.30;;;;;;;22.65;35.43;89930.47;5067390;28;20029;-66
2022/04/09 10:38:27;;;;;;;28.40;6.30;;;;;;;23.01;35.76;89924.63;5067313;28;20024;-66
2022/04/09 10:40:55;;;;;;;14.20;7.28;;;;;;;22.64;36.00;89930.91;5067270;28;20036;-66
2022/04/09 10:43:21;;;;;;;30.17;11.82;;;;;;;22.57;35.79;89936.41;5066870;28;20040;-66
2022/04/09 10:48:32;;;;;;;3.78;1.80;;;;;;;23.10;34.17;89930.31;5066612;28;20442;-66
2022/04/09 10:51:01;;;;;;;39.65;4.75;;;;;;;24.44;32.77;89931.25;5066860;28;20052;-62
2022/04/09 10:53:29;;;;;;;8.63;3.40;;;;;;;24.77;32.17;89929.44;5066999;28;20043;-61
2022/04/09 10:56:26;;;;;;;17.95;3.88;;;;;;;24.19;33.33;89921.59;5072221;28;20036;-64
2022/04/09 10:59:06;;;;;;;9.38;4.78;;;;;;;24.96;32.63;89917.03;5077837;28;20072;-64
2022/04/09 11:01:45;;;;;;;16.98;3.75;;;;;;;24.35;32.51;89925.63;5072987;28;20036;-64
2022/04/09 11:07:14;;;;;;;9.25;3.35;;;;;;;22.97;35.16;89929.34;5061071;28;20407;-66
2022/04/09 11:09:49;;;;;;;23.33;14.45;;;;;;;21.92;35.08;89913.84;5052942;28;20037;-65
2022/04/09 11:12:19;;;;;;;22.38;11.73;;;;;;;21.89;35.81;89920.06;5053567;28;20396;-63
2022/04/09 11:14:51;;;;;;;16.95;10.90;;;;;;;21.75;37.38;89920.97;5053796;28;20045;-65
2022/04/09 11:17:31;;;;;;;20.98;12.05;;;;;;;21.40;37.19;89906.59;5053193;28;20115;-64
2022/04/09 11:20:15;;;;;;;12.63;7.07;;;;;;;21.70;35.78;89916.00;5053299;28;20413;-65
2022/04/09 11:22:50;;;;;;;5.45;3.40;;;;;;;21.41;37.35;89918.19;5053422;28;20418;-65
2022/04/09 11:25:29;;;;;;;14.15;4.10;;;;;;;20.83;38.74;89917.78;5053310;28;20091;-64
2022/04/09 11:28:17;;;;;;;9.95;5.05;;;;;;;21.30;37.92;89912.06;5052926;28;20060;-65
2022/04/09 11:30:58;;;;;;;13.48;6.63;;;;;;;21.18;37.43;89907.91;5052741;28;20461;-64
2022/04/09 11:33:24;;;;;;;6.95;3.15;;;;;;;21.16;37.82;89907.53;5053102;28;20506;-64
2022/04/09 11:35:50;;;;;;;7.57;3.03;;;;;;;21.52;37.87;89913.47;5052830;28;20115;-64
2022/04/09 11:38:16;;;;;;;16.58;3.00;;;;;;;21.26;37.66;89909.41;5035020;28;20037;-65
2022/04/09 11:40:47;;;;;;;9.27;3.97;;;;;;;20.98;37.62;89906.88;5060082;28;20037;-66
2022/04/09 11:43:17;;;;;;;7.05;3.75;;;;;;;20.67;36.58;89886.97;5070021;28;20040;-65
2022/04/09 11:45:44;;;;;;;11.68;4.10;;;;;;;20.73;36.64;89904.34;5072493;28;20041;-65
2022/04/09 11:48:29;;;;;;;54.15;31.88;;;;;;;20.90;36.49;89895.34;5072337;28;20052;-65
2022/04/09 11:50:55;;;;;;;5.30;2.80;;;;;;;20.76;38.05;89879.97;5072099;28;20544;-64
2022/04/09 11:53:22;;;;;;;6.32;2.50;;;;;;;20.73;37.45;89885.41;5072720;28;20033;-63
2022/04/09 11:55:49;;;;;;;6.15;2.22;;;;;;;20.71;37.31;89880.41;5072601;28;20429;-63
2022/04/09 11:58:18;;;;;;;10.80;2.80;;;;;;;21.26;37.04;89885.06;5070441;28;20484;-65
2022/04/09 12:00:47;;;;;;;8.85;2.20;;;;;;;21.23;36.99;89881.19;5061177;28;20041;-65
2022/04/09 12:03:14;;;;;;;8.88;2.42;;;;;;;21.19;36.54;89879.69;5052185;28;20399;-65
2022/04/09 12:05:46;;;;;;;5.95;2.13;;;;;;;21.44;35.66;89879.50;5050693;28;20067;-65
2022/04/09 12:08:16;;;;;;;6.43;2.40;;;;;;;21.38;35.35;89881.09;5051581;28;20478;-65
2022/04/09 12:10:56;;;;;;;5.00;1.92;;;;;;;21.81;35.92;89876.06;5051100;28;20041;-65
2022/04/09 12:13:28;;;;;;;6.30;1.80;;;;;;;22.22;35.27;89878.72;5051686;28;20494;-67
2022/04/09 12:15:54;;;;;;;3.67;1.70;;;;;;;22.01;35.58;89874.31;5051378;28;20453;-65
2022/04/09 12:18:29;;;;;;;17.77;2.38;;;;;;;22.84;34.02;89863.25;5052152;28;20048;-68
2022/04/09 12:20:55;;;;;;;5.82;2.08;;;;;;;22.99;33.58;89867.31;5051710;28;20422;-67
2022/04/09 12:23:33;;;;;;;14.45;2.42;;;;;;;23.20;33.56;89853.44;5063126;28;20045;-66
2022/04/09 12:26:00;;;;;;;11.95;3.45;;;;;;;23.67;33.86;89847.25;5071316;28;20040;-69
2022/04/09 12:28:31;;;;;;;12.63;4.65;;;;;;;24.27;33.05;89850.78;5071768;28;20064;-68
2022/04/09 12:30:57;;;;;;;18.33;10.82;;;;;;;24.61;32.71;89848.56;5071352;28;20151;-68
2022/04/09 12:33:24;;;;;;;11.70;4.57;;;;;;;23.33;33.10;89834.59;5071779;28;20641;-69
2022/04/09 12:35:53;;;;;;;20.00;4.18;;;;;;;23.34;33.69;89833.41;5071567;28;20048;-71
2022/04/09 12:38:35;;;;;;;19.42;3.85;;;;;;;24.17;33.51;89841.69;5071712;28;20124;-69
2022/04/09 12:41:04;;;;;;;6.50;2.10;;;;;;;24.25;33.23;89826.00;5071356;28;20129;-67
2022/04/09 12:43:41;;;;;;;4.28;2.42;;;;;;;24.31;32.44;89819.69;5053979;28;20051;-65
2022/04/09 12:46:09;;;;;;;6.25;2.50;;;;;;;23.73;32.99;89821.94;5059140;28;20142;-67
2022/04/09 12:48:37;;;;;;;5.88;2.28;;;;;;;23.02;34.05;89821.13;5057239;28;20502;-67
2022/04/09 12:51:03;;;;;;;122.55;8.90;;;;;;;22.99;33.39;89813.06;5052430;28;20039;-68
2022/04/09 12:53:29;;;;;;;40.45;4.22;;;;;;;22.74;32.77;89808.00;5059850;28;20041;-69
2022/04/09 12:55:54;;;;;;;24.25;3.45;;;;;;;23.06;32.80;89802.09;5054244;28;20388;-68
2022/04/09 12:58:20;;;;;;;11.73;3.70;;;;;;;23.85;32.12;89796.13;5055614;28;20029;-67
2022/04/09 13:00:45;;;;;;;13.20;2.60;;;;;;;23.58;30.99;89802.41;5068013;28;20044;-67
2022/04/09 13:03:11;;;;;;;44.58;6.70;;;;;;;23.39;32.11;89797.69;5067378;28;20108;-66
2022/04/09 13:05:36;;;;;;;8.68;4.15;;;;;;;23.59;31.30;89798.50;5069350;28;20118;-66